首页
METAR-TAF:

METAR-TAF

机场 :

Winchester Regional Airport

溫徹斯特, 弗吉尼亚州, 美国

纬度: 39-09N, 经度: 078-09W, 海拔: 222米

当前天气观测

该预报发布于11分钟前的03:35 UTC
风速12节,风向西转西北
温度 0°C
湿度 55%
气压 1034 hPa
能見度: 16.1公里
阴天层高于4800英尺

METAR: KOKV 120335Z AUTO 29012KT 10SM OVC048 00/M08 A3052 RMK AO2

时间: 22:46 (03:46 UTC)


TAF: 丢失

超过4000个机场的气象观测和天气预报(METAR&TAF报告)。

可查询的气象台以黄色和红色小点在地图上表示。

将鼠标移到小点上方,可查看气象台名称。

然后点击查看天气观测和预报。

如需切换地图:点击带黑十字的绿色按钮放大地图;点击带横线的绿色按钮缩小地图;或者点击绿色箭头查看邻近地区的地图。


METAR-TAF: